sensor_id;sensor_type;location;lat;lon;timestamp;P1;durP1;ratioP1;P2;durP2;ratioP2
43606;SDS011;29197;44.788;10.366;2023-11-21T00:00:03;55.47;;;36.08;;
43606;SDS011;29197;44.788;10.366;2023-11-21T00:02:58;50.95;;;34.13;;
43606;SDS011;29197;44.788;10.366;2023-11-21T00:05:47;46.67;;;33.45;;
43606;SDS011;29197;44.788;10.366;2023-11-21T00:08:36;51.50;;;33.95;;
43606;SDS011;29197;44.788;10.366;2023-11-21T00:11:24;52.92;;;33.60;;
43606;SDS011;29197;44.788;10.366;2023-11-21T00:14:13;51.97;;;34.83;;
43606;SDS011;29197;44.788;10.366;2023-11-21T00:17:02;55.53;;;34.47;;
43606;SDS011;29197;44.788;10.366;2023-11-21T00:19:53;52.88;;;35.63;;
43606;SDS011;29197;44.788;10.366;2023-11-21T00:22:42;55.78;;;36.45;;
43606;SDS011;29197;44.788;10.366;2023-11-21T00:25:31;54.55;;;35.85;;
43606;SDS011;29197;44.788;10.366;2023-11-21T00:28:20;48.60;;;33.63;;
43606;SDS011;29197;44.788;10.366;2023-11-21T00:31:09;52.60;;;35.55;;
43606;SDS011;29197;44.788;10.366;2023-11-21T00:33:58;61.55;;;36.45;;
43606;SDS011;29197;44.788;10.366;2023-11-21T00:36:48;57.10;;;35.60;;
43606;SDS011;29197;44.788;10.366;2023-11-21T00:39:38;54.45;;;35.60;;
43606;SDS011;29197;44.788;10.366;2023-11-21T00:42:26;58.33;;;35.40;;
43606;SDS011;29197;44.788;10.366;2023-11-21T00:45:15;55.97;;;36.25;;
43606;SDS011;29197;44.788;10.366;2023-11-21T00:48:04;56.83;;;35.55;;
43606;SDS011;29197;44.788;10.366;2023-11-21T00:50:55;52.47;;;34.95;;
43606;SDS011;29197;44.788;10.366;2023-11-21T00:53:45;56.95;;;36.53;;
43606;SDS011;29197;44.788;10.366;2023-11-21T00:56:34;53.60;;;34.97;;
43606;SDS011;29197;44.788;10.366;2023-11-21T00:59:24;55.38;;;35.95;;
43606;SDS011;29197;44.788;10.366;2023-11-21T01:02:12;53.50;;;34.67;;
43606;SDS011;29197;44.788;10.366;2023-11-21T01:05:02;58.33;;;35.72;;
43606;SDS011;29197;44.788;10.366;2023-11-21T01:07:51;57.55;;;37.25;;
43606;SDS011;29197;44.788;10.366;2023-11-21T01:10:41;57.90;;;37.25;;
43606;SDS011;29197;44.788;10.366;2023-11-21T01:13:30;57.83;;;38.42;;
43606;SDS011;29197;44.788;10.366;2023-11-21T01:16:19;57.22;;;36.28;;
43606;SDS011;29197;44.788;10.366;2023-11-21T01:19:08;53.70;;;36.00;;
43606;SDS011;29197;44.788;10.366;2023-11-21T01:21:57;55.55;;;36.88;;
43606;SDS011;29197;44.788;10.366;2023-11-21T01:24:46;52.28;;;34.17;;
43606;SDS011;29197;44.788;10.366;2023-11-21T01:27:36;56.40;;;36.15;;
43606;SDS011;29197;44.788;10.366;2023-11-21T01:30:25;56.03;;;36.17;;
43606;SDS011;29197;44.788;10.366;2023-11-21T01:33:14;56.30;;;36.25;;
43606;SDS011;29197;44.788;10.366;2023-11-21T01:36:03;58.70;;;37.17;;
43606;SDS011;29197;44.788;10.366;2023-11-21T01:38:52;58.15;;;38.75;;
43606;SDS011;29197;44.788;10.366;2023-11-21T01:41:41;56.70;;;37.85;;
43606;SDS011;29197;44.788;10.366;2023-11-21T01:44:33;56.45;;;36.67;;
43606;SDS011;29197;44.788;10.366;2023-11-21T01:47:22;55.13;;;35.88;;
43606;SDS011;29197;44.788;10.366;2023-11-21T01:50:13;55.25;;;35.40;;
43606;SDS011;29197;44.788;10.366;2023-11-21T01:53:03;53.83;;;35.88;;
43606;SDS011;29197;44.788;10.366;2023-11-21T01:55:53;57.28;;;36.95;;
43606;SDS011;29197;44.788;10.366;2023-11-21T01:58:44;56.40;;;36.58;;
43606;SDS011;29197;44.788;10.366;2023-11-21T02:01:36;55.78;;;37.20;;
43606;SDS011;29197;44.788;10.366;2023-11-21T02:04:25;55.47;;;36.25;;
43606;SDS011;29197;44.788;10.366;2023-11-21T02:07:14;55.72;;;35.22;;
43606;SDS011;29197;44.788;10.366;2023-11-21T02:10:05;54.45;;;36.17;;
43606;SDS011;29197;44.788;10.366;2023-11-21T02:12:55;54.67;;;35.10;;
43606;SDS011;29197;44.788;10.366;2023-11-21T02:15:45;53.55;;;34.75;;
43606;SDS011;29197;44.788;10.366;2023-11-21T02:18:37;53.83;;;35.70;;
43606;SDS011;29197;44.788;10.366;2023-11-21T02:21:27;54.60;;;36.05;;
43606;SDS011;29197;44.788;10.366;2023-11-21T02:24:19;52.97;;;35.30;;
43606;SDS011;29197;44.788;10.366;2023-11-21T02:27:08;53.95;;;36.10;;
43606;SDS011;29197;44.788;10.366;2023-11-21T02:29:56;56.92;;;36.67;;
43606;SDS011;29197;44.788;10.366;2023-11-21T02:32:46;56.45;;;35.97;;
43606;SDS011;29197;44.788;10.366;2023-11-21T02:35:36;53.95;;;35.33;;
43606;SDS011;29197;44.788;10.366;2023-11-21T02:38:24;55.22;;;34.83;;
43606;SDS011;29197;44.788;10.366;2023-11-21T02:41:15;51.47;;;34.40;;
43606;SDS011;29197;44.788;10.366;2023-11-21T02:44:04;55.60;;;34.67;;
43606;SDS011;29197;44.788;10.366;2023-11-21T02:46:53;56.72;;;36.20;;
43606;SDS011;29197;44.788;10.366;2023-11-21T02:49:44;54.92;;;34.75;;
43606;SDS011;29197;44.788;10.366;2023-11-21T02:52:33;58.60;;;37.63;;
43606;SDS011;29197;44.788;10.366;2023-11-21T02:55:22;57.60;;;37.72;;
43606;SDS011;29197;44.788;10.366;2023-11-21T02:58:13;59.47;;;37.85;;
43606;SDS011;29197;44.788;10.366;2023-11-21T03:01:02;55.67;;;36.53;;
43606;SDS011;29197;44.788;10.366;2023-11-21T03:03:52;57.33;;;36.67;;
43606;SDS011;29197;44.788;10.366;2023-11-21T03:06:42;54.33;;;36.83;;
43606;SDS011;29197;44.788;10.366;2023-11-21T03:09:30;59.97;;;37.47;;
43606;SDS011;29197;44.788;10.366;2023-11-21T03:12:19;56.78;;;36.00;;
43606;SDS011;29197;44.788;10.366;2023-11-21T03:15:09;61.47;;;39.92;;
43606;SDS011;29197;44.788;10.366;2023-11-21T03:17:58;60.90;;;37.15;;
43606;SDS011;29197;44.788;10.366;2023-11-21T03:20:48;56.28;;;37.42;;
43606;SDS011;29197;44.788;10.366;2023-11-21T03:23:36;60.97;;;38.97;;
43606;SDS011;29197;44.788;10.366;2023-11-21T03:26:26;62.13;;;39.35;;
43606;SDS011;29197;44.788;10.366;2023-11-21T03:29:16;66.07;;;39.08;;
43606;SDS011;29197;44.788;10.366;2023-11-21T03:32:06;65.32;;;40.10;;
43606;SDS011;29197;44.788;10.366;2023-11-21T03:34:57;65.60;;;40.65;;
43606;SDS011;29197;44.788;10.366;2023-11-21T03:37:47;60.70;;;38.97;;
43606;SDS011;29197;44.788;10.366;2023-11-21T03:40:35;62.75;;;39.13;;
43606;SDS011;29197;44.788;10.366;2023-11-21T03:43:26;60.85;;;37.40;;
43606;SDS011;29197;44.788;10.366;2023-11-21T03:46:15;57.08;;;37.58;;
43606;SDS011;29197;44.788;10.366;2023-11-21T03:49:05;57.15;;;37.00;;
43606;SDS011;29197;44.788;10.366;2023-11-21T03:51:54;63.92;;;39.28;;
43606;SDS011;29197;44.788;10.366;2023-11-21T03:54:43;59.22;;;39.55;;
43606;SDS011;29197;44.788;10.366;2023-11-21T03:57:32;65.00;;;40.25;;
43606;SDS011;29197;44.788;10.366;2023-11-21T04:00:21;60.75;;;38.70;;
43606;SDS011;29197;44.788;10.366;2023-11-21T04:03:09;59.70;;;38.42;;
43606;SDS011;29197;44.788;10.366;2023-11-21T04:06:00;56.03;;;37.35;;
43606;SDS011;29197;44.788;10.366;2023-11-21T04:08:49;59.22;;;37.70;;
43606;SDS011;29197;44.788;10.366;2023-11-21T04:11:38;61.03;;;39.15;;
43606;SDS011;29197;44.788;10.366;2023-11-21T04:14:27;60.05;;;37.60;;
43606;SDS011;29197;44.788;10.366;2023-11-21T04:17:17;55.20;;;36.08;;
43606;SDS011;29197;44.788;10.366;2023-11-21T04:20:07;58.28;;;36.47;;
43606;SDS011;29197;44.788;10.366;2023-11-21T04:22:58;56.97;;;36.88;;
43606;SDS011;29197;44.788;10.366;2023-11-21T04:25:47;60.88;;;38.08;;
43606;SDS011;29197;44.788;10.366;2023-11-21T04:28:36;57.15;;;35.75;;
43606;SDS011;29197;44.788;10.366;2023-11-21T04:31:25;55.28;;;35.65;;
43606;SDS011;29197;44.788;10.366;2023-11-21T04:34:14;56.42;;;35.38;;
43606;SDS011;29197;44.788;10.366;2023-11-21T04:37:03;52.08;;;34.72;;
43606;SDS011;29197;44.788;10.366;2023-11-21T04:39:54;54.92;;;35.25;;
43606;SDS011;29197;44.788;10.366;2023-11-21T04:42:43;59.40;;;37.85;;
43606;SDS011;29197;44.788;10.366;2023-11-21T04:45:33;52.40;;;36.05;;
43606;SDS011;29197;44.788;10.366;2023-11-21T04:48:22;54.33;;;35.55;;
43606;SDS011;29197;44.788;10.366;2023-11-21T04:51:10;53.58;;;35.90;;
43606;SDS011;29197;44.788;10.366;2023-11-21T04:53:59;54.35;;;36.33;;
43606;SDS011;29197;44.788;10.366;2023-11-21T04:56:49;52.40;;;34.88;;
43606;SDS011;29197;44.788;10.366;2023-11-21T04:59:38;58.80;;;36.92;;
43606;SDS011;29197;44.788;10.366;2023-11-21T05:02:27;60.03;;;37.08;;
43606;SDS011;29197;44.788;10.366;2023-11-21T05:05:21;55.00;;;36.45;;
43606;SDS011;29197;44.788;10.366;2023-11-21T05:08:10;59.20;;;37.15;;
43606;SDS011;29197;44.788;10.366;2023-11-21T05:11:00;57.03;;;35.15;;
43606;SDS011;29197;44.788;10.366;2023-11-21T05:13:50;51.15;;;33.47;;
43606;SDS011;29197;44.788;10.366;2023-11-21T05:16:39;55.30;;;37.20;;
43606;SDS011;29197;44.788;10.366;2023-11-21T05:19:29;57.10;;;36.38;;
43606;SDS011;29197;44.788;10.366;2023-11-21T05:22:19;59.08;;;36.35;;
43606;SDS011;29197;44.788;10.366;2023-11-21T05:25:08;56.45;;;36.17;;
43606;SDS011;29197;44.788;10.366;2023-11-21T05:27:58;54.20;;;38.05;;
43606;SDS011;29197;44.788;10.366;2023-11-21T05:30:49;60.33;;;36.58;;
43606;SDS011;29197;44.788;10.366;2023-11-21T05:33:53;61.80;;;36.47;;
43606;SDS011;29197;44.788;10.366;2023-11-21T05:36:42;50.22;;;34.25;;
43606;SDS011;29197;44.788;10.366;2023-11-21T05:39:32;51.55;;;34.75;;
43606;SDS011;29197;44.788;10.366;2023-11-21T05:42:21;51.17;;;32.90;;
43606;SDS011;29197;44.788;10.366;2023-11-21T05:45:10;54.22;;;34.90;;
43606;SDS011;29197;44.788;10.366;2023-11-21T05:48:01;51.25;;;33.63;;
43606;SDS011;29197;44.788;10.366;2023-11-21T05:50:50;48.00;;;34.28;;
43606;SDS011;29197;44.788;10.366;2023-11-21T05:53:39;52.17;;;33.73;;
43606;SDS011;29197;44.788;10.366;2023-11-21T05:56:28;55.50;;;33.30;;
43606;SDS011;29197;44.788;10.366;2023-11-21T05:59:17;52.55;;;33.78;;
43606;SDS011;29197;44.788;10.366;2023-11-21T06:02:09;54.00;;;35.13;;
43606;SDS011;29197;44.788;10.366;2023-11-21T06:04:59;56.53;;;34.95;;
43606;SDS011;29197;44.788;10.366;2023-11-21T06:07:48;51.17;;;32.92;;
43606;SDS011;29197;44.788;10.366;2023-11-21T06:10:37;54.30;;;34.13;;
43606;SDS011;29197;44.788;10.366;2023-11-21T06:13:27;54.40;;;35.40;;
43606;SDS011;29197;44.788;10.366;2023-11-21T06:16:16;57.80;;;37.05;;
43606;SDS011;29197;44.788;10.366;2023-11-21T06:19:06;56.80;;;36.53;;
43606;SDS011;29197;44.788;10.366;2023-11-21T06:21:56;53.85;;;35.08;;
43606;SDS011;29197;44.788;10.366;2023-11-21T06:24:45;53.78;;;35.28;;
43606;SDS011;29197;44.788;10.366;2023-11-21T06:27:35;58.55;;;38.35;;
43606;SDS011;29197;44.788;10.366;2023-11-21T06:30:24;55.15;;;36.13;;
43606;SDS011;29197;44.788;10.366;2023-11-21T06:33:14;59.08;;;37.35;;
43606;SDS011;29197;44.788;10.366;2023-11-21T06:36:03;52.50;;;36.38;;
43606;SDS011;29197;44.788;10.366;2023-11-21T06:38:54;57.97;;;37.47;;
43606;SDS011;29197;44.788;10.366;2023-11-21T06:41:43;56.35;;;35.53;;
43606;SDS011;29197;44.788;10.366;2023-11-21T06:44:31;53.17;;;37.53;;
43606;SDS011;29197;44.788;10.366;2023-11-21T06:47:22;54.50;;;35.55;;
43606;SDS011;29197;44.788;10.366;2023-11-21T06:50:11;61.47;;;37.58;;
43606;SDS011;29197;44.788;10.366;2023-11-21T06:53:01;59.35;;;37.85;;
43606;SDS011;29197;44.788;10.366;2023-11-21T06:55:54;56.57;;;36.83;;
43606;SDS011;29197;44.788;10.366;2023-11-21T06:58:43;60.37;;;40.00;;
43606;SDS011;29197;44.788;10.366;2023-11-21T07:01:33;62.40;;;41.13;;
43606;SDS011;29197;44.788;10.366;2023-11-21T07:04:26;58.87;;;39.23;;
43606;SDS011;29197;44.788;10.366;2023-11-21T07:07:14;61.17;;;39.70;;
43606;SDS011;29197;44.788;10.366;2023-11-21T07:10:04;63.63;;;40.93;;
43606;SDS011;29197;44.788;10.366;2023-11-21T07:12:54;56.73;;;38.00;;
43606;SDS011;29197;44.788;10.366;2023-11-21T07:15:43;59.40;;;38.08;;
43606;SDS011;29197;44.788;10.366;2023-11-21T07:18:32;54.65;;;36.55;;
43606;SDS011;29197;44.788;10.366;2023-11-21T07:21:21;59.30;;;37.95;;
43606;SDS011;29197;44.788;10.366;2023-11-21T07:24:11;59.45;;;38.50;;
43606;SDS011;29197;44.788;10.366;2023-11-21T07:27:00;60.33;;;39.08;;
43606;SDS011;29197;44.788;10.366;2023-11-21T07:29:52;69.10;;;44.42;;
43606;SDS011;29197;44.788;10.366;2023-11-21T07:32:41;68.78;;;42.90;;
43606;SDS011;29197;44.788;10.366;2023-11-21T07:35:33;69.18;;;39.63;;
43606;SDS011;29197;44.788;10.366;2023-11-21T07:38:22;64.57;;;41.80;;
43606;SDS011;29197;44.788;10.366;2023-11-21T07:41:11;69.25;;;42.15;;
43606;SDS011;29197;44.788;10.366;2023-11-21T07:44:16;63.73;;;41.10;;
43606;SDS011;29197;44.788;10.366;2023-11-21T07:47:08;69.20;;;42.25;;
43606;SDS011;29197;44.788;10.366;2023-11-21T07:49:57;63.05;;;40.30;;
43606;SDS011;29197;44.788;10.366;2023-11-21T07:52:46;66.32;;;41.30;;
43606;SDS011;29197;44.788;10.366;2023-11-21T07:55:35;69.95;;;42.67;;
43606;SDS011;29197;44.788;10.366;2023-11-21T07:58:24;72.82;;;42.90;;
43606;SDS011;29197;44.788;10.366;2023-11-21T08:01:13;64.47;;;39.72;;
43606;SDS011;29197;44.788;10.366;2023-11-21T08:04:04;63.08;;;40.95;;
43606;SDS011;29197;44.788;10.366;2023-11-21T08:06:53;63.67;;;40.05;;
43606;SDS011;29197;44.788;10.366;2023-11-21T08:09:42;66.82;;;40.33;;
43606;SDS011;29197;44.788;10.366;2023-11-21T08:12:31;60.20;;;39.78;;
43606;SDS011;29197;44.788;10.366;2023-11-21T08:15:20;65.72;;;42.30;;
43606;SDS011;29197;44.788;10.366;2023-11-21T08:18:09;64.70;;;40.25;;
43606;SDS011;29197;44.788;10.366;2023-11-21T08:20:59;67.22;;;43.60;;
43606;SDS011;29197;44.788;10.366;2023-11-21T08:23:49;63.22;;;42.03;;
43606;SDS011;29197;44.788;10.366;2023-11-21T08:26:41;68.57;;;43.97;;
43606;SDS011;29197;44.788;10.366;2023-11-21T08:29:29;63.20;;;41.60;;
43606;SDS011;29197;44.788;10.366;2023-11-21T08:32:18;69.50;;;44.00;;
43606;SDS011;29197;44.788;10.366;2023-11-21T08:35:07;63.47;;;41.67;;
43606;SDS011;29197;44.788;10.366;2023-11-21T08:37:58;71.32;;;43.53;;
43606;SDS011;29197;44.788;10.366;2023-11-21T08:40:47;66.95;;;42.55;;
43606;SDS011;29197;44.788;10.366;2023-11-21T08:43:36;66.03;;;40.55;;
43606;SDS011;29197;44.788;10.366;2023-11-21T08:46:26;65.35;;;41.60;;
43606;SDS011;29197;44.788;10.366;2023-11-21T08:49:15;58.03;;;36.28;;
43606;SDS011;29197;44.788;10.366;2023-11-21T08:52:04;60.10;;;38.80;;
43606;SDS011;29197;44.788;10.366;2023-11-21T08:54:54;67.78;;;41.67;;
43606;SDS011;29197;44.788;10.366;2023-11-21T08:57:43;66.53;;;42.13;;
43606;SDS011;29197;44.788;10.366;2023-11-21T09:00:33;65.75;;;40.10;;
43606;SDS011;29197;44.788;10.366;2023-11-21T09:03:23;64.40;;;40.75;;
43606;SDS011;29197;44.788;10.366;2023-11-21T09:06:11;65.10;;;40.28;;
43606;SDS011;29197;44.788;10.366;2023-11-21T09:09:01;65.45;;;41.47;;
43606;SDS011;29197;44.788;10.366;2023-11-21T09:11:52;64.65;;;40.58;;
43606;SDS011;29197;44.788;10.366;2023-11-21T09:14:41;65.07;;;42.67;;
43606;SDS011;29197;44.788;10.366;2023-11-21T09:17:30;65.55;;;41.67;;
43606;SDS011;29197;44.788;10.366;2023-11-21T09:20:20;66.72;;;39.90;;
43606;SDS011;29197;44.788;10.366;2023-11-21T09:23:09;65.55;;;41.75;;
43606;SDS011;29197;44.788;10.366;2023-11-21T09:25:58;62.60;;;40.47;;
43606;SDS011;29197;44.788;10.366;2023-11-21T09:28:49;64.57;;;41.85;;
43606;SDS011;29197;44.788;10.366;2023-11-21T09:31:38;65.18;;;42.15;;
43606;SDS011;29197;44.788;10.366;2023-11-21T09:34:27;68.28;;;42.63;;
43606;SDS011;29197;44.788;10.366;2023-11-21T09:37:16;66.82;;;43.35;;
43606;SDS011;29197;44.788;10.366;2023-11-21T09:40:10;62.20;;;40.63;;
43606;SDS011;29197;44.788;10.366;2023-11-21T09:43:01;71.07;;;43.58;;
43606;SDS011;29197;44.788;10.366;2023-11-21T09:45:56;69.85;;;45.42;;
43606;SDS011;29197;44.788;10.366;2023-11-21T09:48:50;77.70;;;47.83;;
43606;SDS011;29197;44.788;10.366;2023-11-21T09:51:39;72.78;;;45.38;;
43606;SDS011;29197;44.788;10.366;2023-11-21T09:54:31;72.47;;;47.10;;
43606;SDS011;29197;44.788;10.366;2023-11-21T09:57:20;73.43;;;44.33;;
43606;SDS011;29197;44.788;10.366;2023-11-21T10:00:10;68.43;;;45.63;;
43606;SDS011;29197;44.788;10.366;2023-11-21T10:03:03;66.63;;;43.30;;
43606;SDS011;29197;44.788;10.366;2023-11-21T10:05:52;66.35;;;44.13;;
43606;SDS011;29197;44.788;10.366;2023-11-21T10:08:42;68.50;;;42.95;;
43606;SDS011;29197;44.788;10.366;2023-11-21T10:11:41;62.80;;;41.58;;
43606;SDS011;29197;44.788;10.366;2023-11-21T10:14:30;66.70;;;43.70;;
43606;SDS011;29197;44.788;10.366;2023-11-21T10:17:19;67.38;;;42.22;;
43606;SDS011;29197;44.788;10.366;2023-11-21T10:20:10;64.70;;;42.70;;
43606;SDS011;29197;44.788;10.366;2023-11-21T10:23:00;71.85;;;45.03;;
43606;SDS011;29197;44.788;10.366;2023-11-21T10:25:50;67.35;;;43.70;;
43606;SDS011;29197;44.788;10.366;2023-11-21T10:28:41;68.95;;;43.90;;
43606;SDS011;29197;44.788;10.366;2023-11-21T10:31:30;70.70;;;45.30;;
43606;SDS011;29197;44.788;10.366;2023-11-21T10:34:19;65.55;;;43.35;;
43606;SDS011;29197;44.788;10.366;2023-11-21T10:37:13;74.60;;;46.65;;
43606;SDS011;29197;44.788;10.366;2023-11-21T10:40:04;69.75;;;46.60;;
43606;SDS011;29197;44.788;10.366;2023-11-21T10:42:53;71.90;;;44.17;;
43606;SDS011;29197;44.788;10.366;2023-11-21T10:45:45;73.72;;;45.03;;
43606;SDS011;29197;44.788;10.366;2023-11-21T10:48:33;76.57;;;48.97;;
43606;SDS011;29197;44.788;10.366;2023-11-21T10:51:22;76.25;;;48.42;;
43606;SDS011;29197;44.788;10.366;2023-11-21T10:54:13;71.00;;;45.40;;
43606;SDS011;29197;44.788;10.366;2023-11-21T10:57:05;72.78;;;44.88;;
43606;SDS011;29197;44.788;10.366;2023-11-21T10:59:54;69.78;;;45.45;;
43606;SDS011;29197;44.788;10.366;2023-11-21T11:02:44;69.68;;;43.83;;
43606;SDS011;29197;44.788;10.366;2023-11-21T11:05:34;63.80;;;41.42;;
43606;SDS011;29197;44.788;10.366;2023-11-21T11:08:23;77.63;;;47.88;;
43606;SDS011;29197;44.788;10.366;2023-11-21T11:11:15;70.38;;;45.97;;
43606;SDS011;29197;44.788;10.366;2023-11-21T11:14:05;69.55;;;45.78;;
43606;SDS011;29197;44.788;10.366;2023-11-21T11:16:54;72.07;;;46.92;;
43606;SDS011;29197;44.788;10.366;2023-11-21T11:19:43;72.95;;;46.28;;
43606;SDS011;29197;44.788;10.366;2023-11-21T11:22:35;69.45;;;45.35;;
43606;SDS011;29197;44.788;10.366;2023-11-21T11:25:30;78.35;;;50.53;;
43606;SDS011;29197;44.788;10.366;2023-11-21T11:28:27;71.20;;;46.33;;
43606;SDS011;29197;44.788;10.366;2023-11-21T11:31:23;73.30;;;48.15;;
43606;SDS011;29197;44.788;10.366;2023-11-21T11:34:17;79.35;;;48.95;;
43606;SDS011;29197;44.788;10.366;2023-11-21T11:37:09;77.53;;;47.67;;
43606;SDS011;29197;44.788;10.366;2023-11-21T11:39:58;71.65;;;46.47;;
43606;SDS011;29197;44.788;10.366;2023-11-21T11:42:57;68.88;;;46.35;;
43606;SDS011;29197;44.788;10.366;2023-11-21T11:45:47;74.13;;;46.80;;
43606;SDS011;29197;44.788;10.366;2023-11-21T11:48:38;66.25;;;43.78;;
43606;SDS011;29197;44.788;10.366;2023-11-21T11:51:27;67.95;;;45.40;;
43606;SDS011;29197;44.788;10.366;2023-11-21T11:54:19;71.43;;;44.72;;
43606;SDS011;29197;44.788;10.366;2023-11-21T11:57:23;65.25;;;43.05;;
43606;SDS011;29197;44.788;10.366;2023-11-21T12:00:16;72.72;;;46.72;;
43606;SDS011;29197;44.788;10.366;2023-11-21T12:03:09;68.50;;;44.15;;
43606;SDS011;29197;44.788;10.366;2023-11-21T12:05:58;67.82;;;45.17;;
43606;SDS011;29197;44.788;10.366;2023-11-21T12:08:47;64.57;;;41.00;;
43606;SDS011;29197;44.788;10.366;2023-11-21T12:11:36;65.03;;;40.22;;
43606;SDS011;29197;44.788;10.366;2023-11-21T12:14:25;67.40;;;43.15;;
43606;SDS011;29197;44.788;10.366;2023-11-21T12:17:14;67.45;;;43.28;;
43606;SDS011;29197;44.788;10.366;2023-11-21T12:20:06;66.05;;;42.10;;
43606;SDS011;29197;44.788;10.366;2023-11-21T12:23:01;69.53;;;44.40;;
43606;SDS011;29197;44.788;10.366;2023-11-21T12:25:50;63.45;;;41.55;;
43606;SDS011;29197;44.788;10.366;2023-11-21T12:28:39;61.60;;;40.22;;
43606;SDS011;29197;44.788;10.366;2023-11-21T12:31:28;66.75;;;42.88;;
43606;SDS011;29197;44.788;10.366;2023-11-21T12:34:17;75.63;;;45.28;;
43606;SDS011;29197;44.788;10.366;2023-11-21T12:37:07;75.18;;;48.42;;
43606;SDS011;29197;44.788;10.366;2023-11-21T12:39:57;84.30;;;49.28;;
43606;SDS011;29197;44.788;10.366;2023-11-21T12:42:46;73.45;;;46.67;;
43606;SDS011;29197;44.788;10.366;2023-11-21T12:45:36;79.68;;;49.60;;
43606;SDS011;29197;44.788;10.366;2023-11-21T12:48:25;72.28;;;46.22;;
43606;SDS011;29197;44.788;10.366;2023-11-21T12:51:14;81.10;;;51.33;;
43606;SDS011;29197;44.788;10.366;2023-11-21T12:54:04;70.53;;;47.25;;
43606;SDS011;29197;44.788;10.366;2023-11-21T12:56:54;73.85;;;49.20;;
43606;SDS011;29197;44.788;10.366;2023-11-21T12:59:48;85.60;;;53.80;;
43606;SDS011;29197;44.788;10.366;2023-11-21T13:02:41;76.15;;;48.78;;
43606;SDS011;29197;44.788;10.366;2023-11-21T13:05:31;80.20;;;49.90;;
43606;SDS011;29197;44.788;10.366;2023-11-21T13:08:21;75.65;;;47.17;;
43606;SDS011;29197;44.788;10.366;2023-11-21T13:11:12;77.97;;;47.67;;
43606;SDS011;29197;44.788;10.366;2023-11-21T13:14:02;76.80;;;49.35;;
43606;SDS011;29197;44.788;10.366;2023-11-21T13:16:51;78.30;;;50.63;;
43606;SDS011;29197;44.788;10.366;2023-11-21T13:19:40;72.25;;;46.55;;
43606;SDS011;29197;44.788;10.366;2023-11-21T13:22:29;76.35;;;45.47;;
43606;SDS011;29197;44.788;10.366;2023-11-21T13:25:20;68.35;;;43.38;;
43606;SDS011;29197;44.788;10.366;2023-11-21T13:28:10;79.05;;;49.05;;
43606;SDS011;29197;44.788;10.366;2023-11-21T13:31:02;85.30;;;51.85;;
43606;SDS011;29197;44.788;10.366;2023-11-21T13:33:57;155.38;;;78.63;;
43606;SDS011;29197;44.788;10.366;2023-11-21T13:36:51;113.93;;;60.97;;
43606;SDS011;29197;44.788;10.366;2023-11-21T13:39:47;101.15;;;57.67;;
43606;SDS011;29197;44.788;10.366;2023-11-21T13:42:38;72.07;;;46.08;;
43606;SDS011;29197;44.788;10.366;2023-11-21T13:45:29;91.15;;;51.53;;
43606;SDS011;29197;44.788;10.366;2023-11-21T13:48:18;79.47;;;47.67;;
43606;SDS011;29197;44.788;10.366;2023-11-21T13:51:14;78.57;;;49.53;;
43606;SDS011;29197;44.788;10.366;2023-11-21T13:54:04;67.72;;;45.70;;
43606;SDS011;29197;44.788;10.366;2023-11-21T13:56:56;93.60;;;55.60;;
43606;SDS011;29197;44.788;10.366;2023-11-21T13:59:47;78.50;;;47.65;;
43606;SDS011;29197;44.788;10.366;2023-11-21T14:02:37;134.63;;;73.60;;
43606;SDS011;29197;44.788;10.366;2023-11-21T14:05:30;108.72;;;59.03;;
43606;SDS011;29197;44.788;10.366;2023-11-21T14:08:20;120.35;;;69.68;;
43606;SDS011;29197;44.788;10.366;2023-11-21T14:11:15;80.90;;;50.65;;
43606;SDS011;29197;44.788;10.366;2023-11-21T14:14:05;76.57;;;48.03;;
43606;SDS011;29197;44.788;10.366;2023-11-21T14:16:54;81.03;;;51.55;;
43606;SDS011;29197;44.788;10.366;2023-11-21T14:19:45;84.95;;;54.45;;
43606;SDS011;29197;44.788;10.366;2023-11-21T14:22:35;81.97;;;51.28;;
43606;SDS011;29197;44.788;10.366;2023-11-21T14:25:24;83.65;;;53.65;;
43606;SDS011;29197;44.788;10.366;2023-11-21T14:28:13;104.00;;;62.58;;
43606;SDS011;29197;44.788;10.366;2023-11-21T14:31:02;82.75;;;50.70;;
43606;SDS011;29197;44.788;10.366;2023-11-21T14:33:51;77.00;;;49.08;;
43606;SDS011;29197;44.788;10.366;2023-11-21T14:36:41;69.03;;;45.13;;
43606;SDS011;29197;44.788;10.366;2023-11-21T14:39:31;66.47;;;41.45;;
43606;SDS011;29197;44.788;10.366;2023-11-21T14:42:24;69.15;;;42.40;;
43606;SDS011;29197;44.788;10.366;2023-11-21T14:45:16;71.68;;;40.80;;
43606;SDS011;29197;44.788;10.366;2023-11-21T14:48:06;66.30;;;40.30;;
43606;SDS011;29197;44.788;10.366;2023-11-21T14:51:03;59.30;;;35.22;;
43606;SDS011;29197;44.788;10.366;2023-11-21T14:54:07;56.20;;;35.65;;
43606;SDS011;29197;44.788;10.366;2023-11-21T14:56:56;64.82;;;36.60;;
43606;SDS011;29197;44.788;10.366;2023-11-21T14:59:45;56.00;;;34.13;;
43606;SDS011;29197;44.788;10.366;2023-11-21T15:02:35;58.65;;;35.00;;
43606;SDS011;29197;44.788;10.366;2023-11-21T15:05:36;59.65;;;35.10;;
43606;SDS011;29197;44.788;10.366;2023-11-21T15:08:26;57.40;;;35.70;;
43606;SDS011;29197;44.788;10.366;2023-11-21T15:11:20;59.10;;;36.72;;
43606;SDS011;29197;44.788;10.366;2023-11-21T15:14:17;61.20;;;37.45;;
43606;SDS011;29197;44.788;10.366;2023-11-21T15:17:11;65.32;;;36.78;;
43606;SDS011;29197;44.788;10.366;2023-11-21T15:20:06;71.45;;;39.47;;
43606;SDS011;29197;44.788;10.366;2023-11-21T15:22:55;58.03;;;36.35;;
43606;SDS011;29197;44.788;10.366;2023-11-21T15:25:45;62.33;;;36.97;;
43606;SDS011;29197;44.788;10.366;2023-11-21T15:28:35;60.35;;;35.28;;
43606;SDS011;29197;44.788;10.366;2023-11-21T15:31:24;63.33;;;38.92;;
43606;SDS011;29197;44.788;10.366;2023-11-21T15:34:13;61.08;;;37.30;;
43606;SDS011;29197;44.788;10.366;2023-11-21T15:37:02;96.45;;;59.28;;
43606;SDS011;29197;44.788;10.366;2023-11-21T15:39:52;70.22;;;38.22;;
43606;SDS011;29197;44.788;10.366;2023-11-21T15:42:41;62.30;;;37.47;;
43606;SDS011;29197;44.788;10.366;2023-11-21T15:45:31;59.15;;;37.10;;
43606;SDS011;29197;44.788;10.366;2023-11-21T15:48:20;67.88;;;41.75;;
43606;SDS011;29197;44.788;10.366;2023-11-21T15:51:09;63.45;;;38.30;;
43606;SDS011;29197;44.788;10.366;2023-11-21T15:53:59;63.08;;;39.47;;
43606;SDS011;29197;44.788;10.366;2023-11-21T15:56:48;61.03;;;38.95;;
43606;SDS011;29197;44.788;10.366;2023-11-21T15:59:39;65.63;;;39.55;;
43606;SDS011;29197;44.788;10.366;2023-11-21T16:02:31;59.03;;;38.05;;
43606;SDS011;29197;44.788;10.366;2023-11-21T16:05:20;72.25;;;42.53;;
43606;SDS011;29197;44.788;10.366;2023-11-21T16:08:11;64.45;;;40.25;;
43606;SDS011;29197;44.788;10.366;2023-11-21T16:11:01;69.32;;;42.03;;
43606;SDS011;29197;44.788;10.366;2023-11-21T16:13:50;66.43;;;41.42;;
43606;SDS011;29197;44.788;10.366;2023-11-21T16:16:40;72.45;;;42.80;;
43606;SDS011;29197;44.788;10.366;2023-11-21T16:19:30;64.15;;;39.60;;